Time;durP1;ratioP1;P1;durP2;ratioP2;P2;SDS_P1;SDS_P2;PMS_P1;PMS_P2;Temp;Humidity;BMP_temperature;BMP_pressure;BME280_temperature;BME280_humidity;BME280_pressure;Samples;Min_cycle;Max_cycle;Signal;HPM_P1;HPM_P2
2021/04/04 00:01:12;;;;;;;6.20;3.22;;;;;;;0.99;69.24;99497.03;5012310;28;20030;-68
2021/04/04 00:03:38;;;;;;;5.78;3.45;;;;;;;0.98;68.39;99498.00;5008363;28;20030;-69
2021/04/04 00:06:04;;;;;;;6.63;3.05;;;;;;;0.86;69.40;99497.19;5003130;28;20030;-69
2021/04/04 00:08:29;;;;;;;12.38;3.55;;;;;;;0.77;69.87;99484.59;5008400;28;20030;-68
2021/04/04 00:10:54;;;;;;;8.05;2.95;;;;;;;0.88;70.00;99481.06;5012525;28;20033;-68
2021/04/04 00:13:20;;;;;;;9.50;3.15;;;;;;;0.91;69.87;99499.47;5005429;28;20484;-68
2021/04/04 00:15:45;;;;;;;9.90;3.63;;;;;;;0.94;70.01;99495.69;5013927;28;20040;-69
2021/04/04 00:18:11;;;;;;;7.55;2.90;;;;;;;0.86;69.75;99493.66;5010230;28;20160;-68
2021/04/04 00:20:36;;;;;;;8.30;3.25;;;;;;;0.85;70.43;99506.13;5010400;28;20033;-68
2021/04/04 00:23:03;;;;;;;7.47;3.28;;;;;;;0.74;70.48;99505.34;5007815;28;20025;-69
2021/04/04 00:25:28;;;;;;;10.68;3.22;;;;;;;0.70;70.31;99503.88;5011467;28;20109;-68
2021/04/04 00:27:54;;;;;;;6.50;3.30;;;;;;;0.65;70.63;99502.44;5009533;28;20551;-68
2021/04/04 00:30:20;;;;;;;5.30;2.67;;;;;;;0.65;70.09;99504.22;5006686;28;20032;-68
2021/04/04 00:32:46;;;;;;;6.85;3.53;;;;;;;0.65;71.23;99507.75;5000196;28;20033;-68
2021/04/04 00:35:14;;;;;;;10.48;3.80;;;;;;;0.65;70.59;99499.78;5017508;28;20030;-69
2021/04/04 00:37:40;;;;;;;6.90;3.13;;;;;;;0.89;69.84;99498.72;5011402;28;20030;-68
2021/04/04 00:40:18;;;;;;;9.38;3.70;;;;;;;0.88;70.35;99511.22;5000842;28;20040;-68
2021/04/04 00:42:43;;;;;;;5.57;3.17;;;;;;;0.88;69.96;99505.03;4996165;28;20057;-66
2021/04/04 00:45:18;;;;;;;6.45;3.38;;;;;;;0.93;70.72;99500.19;5009315;28;20061;-69
2021/04/04 00:47:43;;;;;;;7.57;3.30;;;;;;;0.74;70.23;99495.53;5006005;28;20042;-69
2021/04/04 00:50:10;;;;;;;6.55;3.13;;;;;;;0.50;70.87;99487.69;5009377;28;20029;-69
2021/04/04 00:52:36;;;;;;;5.65;2.70;;;;;;;0.50;71.28;99492.13;5009885;28;20053;-68
2021/04/04 00:55:04;;;;;;;7.25;2.58;;;;;;;0.35;71.67;99478.25;5027233;28;20037;-68
2021/04/04 00:57:29;;;;;;;6.85;2.72;;;;;;;0.36;71.39;99490.59;5011105;28;20038;-69
2021/04/04 00:59:54;;;;;;;6.75;2.63;;;;;;;0.43;71.23;99497.13;5010567;28;20408;-68
2021/04/04 01:02:21;;;;;;;8.32;2.88;;;;;;;0.29;71.79;99492.03;5009216;28;20026;-68
2021/04/04 01:04:48;;;;;;;6.55;3.70;;;;;;;0.28;72.14;99482.34;5010609;28;20229;-69
2021/04/04 01:07:13;;;;;;;6.38;3.33;;;;;;;0.33;71.49;99491.66;5011461;28;20026;-69
2021/04/04 01:09:39;;;;;;;6.00;3.40;;;;;;;0.15;71.38;99488.63;5007723;28;20038;-69
2021/04/04 01:12:26;;;;;;;6.70;3.00;;;;;;;0.20;71.56;99489.13;5009798;28;20068;-68
2021/04/04 01:15:00;;;;;;;7.10;3.35;;;;;;;0.20;71.26;99490.94;4993522;28;20035;-69
2021/04/04 01:17:28;;;;;;;7.65;3.30;;;;;;;0.11;71.62;99475.72;5000708;28;20026;-68
2021/04/04 01:20:03;;;;;;;7.50;3.63;;;;;;;0.09;71.92;99490.94;5008074;28;20036;-69
2021/04/04 01:22:49;;;;;;;5.60;3.15;;;;;;;-0.01;71.52;99493.47;5008322;28;20071;-68
2021/04/04 01:25:37;;;;;;;6.65;3.45;;;;;;;-0.03;71.95;99490.94;5011152;28;20084;-69
2021/04/04 01:28:08;;;;;;;10.63;2.95;;;;;;;-0.18;73.02;99494.78;5011499;28;20125;-69
2021/04/04 01:30:36;;;;;;;8.07;3.20;;;;;;;-0.27;73.26;99485.69;5004812;28;20492;-69
2021/04/04 01:33:03;;;;;;;9.15;3.22;;;;;;;-0.20;72.89;99494.06;5008062;28;20041;-69
2021/04/04 01:35:33;;;;;;;10.95;3.10;;;;;;;-0.17;72.78;99496.47;4998733;28;20031;-70
2021/04/04 01:38:00;;;;;;;9.52;3.40;;;;;;;-0.35;73.05;99490.75;4995473;28;20418;-70
2021/04/04 01:40:30;;;;;;;7.18;3.08;;;;;;;-0.35;73.32;99493.41;5011107;28;20026;-69
2021/04/04 01:42:55;;;;;;;;;;;;;;;-0.31;73.67;99496.69;5000595;28;20045;-68
2021/04/04 01:45:25;;;;;;;5.95;3.17;;;;;;;-0.11;73.39;99495.16;5010549;28;19924;-68
2021/04/04 01:47:52;;;;;;;7.93;2.92;;;;;;;-0.24;73.27;99474.84;5009193;28;20439;-68
2021/04/04 01:50:18;;;;;;;6.75;3.20;;;;;;;-0.17;73.24;99490.31;5009720;28;20384;-68
2021/04/04 01:52:45;;;;;;;5.93;3.30;;;;;;;-0.17;73.43;99480.50;5010146;28;20120;-68
2021/04/04 01:55:12;;;;;;;6.53;3.10;;;;;;;-0.34;73.58;99468.53;5003170;28;20096;-67
2021/04/04 01:57:38;;;;;;;7.10;3.72;;;;;;;-0.32;73.46;99466.56;5008286;28;20387;-68
2021/04/04 02:00:15;;;;;;;7.82;3.50;;;;;;;-0.41;73.80;99464.63;5001805;28;20030;-68
2021/04/04 02:02:44;;;;;;;9.93;4.05;;;;;;;-0.19;73.41;99474.47;5003123;28;20455;-67
2021/04/04 02:05:10;;;;;;;9.05;4.40;;;;;;;-0.35;73.40;99466.81;5010737;28;20030;-67
2021/04/04 02:07:40;;;;;;;17.05;5.75;;;;;;;-0.30;74.17;99469.13;5028989;28;20033;-70
2021/04/04 02:10:11;;;;;;;17.30;5.53;;;;;;;-0.44;74.38;99464.88;5007530;28;20117;-70
2021/04/04 02:12:37;;;;;;;14.43;5.35;;;;;;;-0.49;75.18;99462.56;5028814;28;20026;-68
2021/04/04 02:15:07;;;;;;;14.60;5.57;;;;;;;-0.52;75.17;99475.25;5002211;28;20031;-68
2021/04/04 02:17:35;;;;;;;12.02;4.90;;;;;;;-0.54;75.02;99467.38;5020274;28;20053;-68
2021/04/04 02:20:03;;;;;;;15.55;5.43;;;;;;;-0.65;74.77;99456.72;5009261;28;20073;-68
2021/04/04 02:22:29;;;;;;;16.55;5.57;;;;;;;-0.63;75.88;99472.53;5005821;28;20022;-68
2021/04/04 02:24:55;;;;;;;13.27;4.47;;;;;;;-0.68;75.38;99457.81;5008369;28;20460;-68
2021/04/04 02:27:20;;;;;;;12.07;3.92;;;;;;;-0.73;75.43;99473.25;5014446;28;20076;-68
2021/04/04 02:29:45;;;;;;;12.25;3.90;;;;;;;-0.66;76.20;99465.63;5013283;28;20034;-68
2021/04/04 02:32:12;;;;;;;10.65;4.32;;;;;;;-0.63;75.87;99460.09;5011411;28;20459;-69
2021/04/04 02:34:40;;;;;;;15.05;3.70;;;;;;;-0.59;75.56;99460.72;5000307;28;20452;-68
2021/04/04 02:37:10;;;;;;;10.75;3.70;;;;;;;-0.63;74.67;99465.41;4997662;28;20510;-68
2021/04/04 02:39:44;;;;;;;8.70;4.00;;;;;;;-0.73;74.81;99449.34;5023586;28;20025;-68
2021/04/04 02:42:11;;;;;;;7.68;3.30;;;;;;;-0.84;73.67;99461.72;5015118;28;20026;-69
2021/04/04 02:44:37;;;;;;;6.35;3.35;;;;;;;-0.89;74.09;99470.88;5004465;28;20030;-68
2021/04/04 02:47:06;;;;;;;8.35;3.72;;;;;;;-0.93;75.57;99458.78;5005749;28;20029;-68
2021/04/04 02:49:34;;;;;;;8.23;3.72;;;;;;;-0.97;75.14;99467.09;5018021;28;20033;-68
2021/04/04 02:52:02;;;;;;;7.97;3.90;;;;;;;-1.01;74.73;99470.94;5018518;28;20488;-69
2021/04/04 02:54:30;;;;;;;9.77;4.00;;;;;;;-1.13;75.70;99464.72;5013517;28;20022;-68
2021/04/04 02:56:57;;;;;;;12.07;3.70;;;;;;;-1.33;75.74;99456.41;5014043;28;20061;-69
2021/04/04 02:59:27;;;;;;;8.07;3.92;;;;;;;-1.25;76.37;99453.22;5000767;28;20031;-69
2021/04/04 03:01:53;;;;;;;8.50;3.47;;;;;;;-1.15;76.51;99464.00;4997865;28;20069;-68
2021/04/04 03:04:21;;;;;;;12.32;3.88;;;;;;;-1.05;75.68;99470.31;5004683;28;20057;-69
2021/04/04 03:06:49;;;;;;;11.80;4.28;;;;;;;-1.16;76.19;99468.44;4996196;28;20023;-68
2021/04/04 03:09:15;;;;;;;7.70;3.80;;;;;;;-1.29;75.58;99464.16;5006469;28;20029;-69
2021/04/04 03:11:42;;;;;;;6.40;3.55;;;;;;;-1.29;75.25;99466.81;5014089;28;20113;-68
2021/04/04 03:14:10;;;;;;;12.57;3.30;;;;;;;-1.45;75.87;99461.75;5008829;28;20029;-68
2021/04/04 03:16:36;;;;;;;6.53;3.25;;;;;;;-1.46;76.12;99466.22;5011472;28;20038;-68
2021/04/04 03:19:03;;;;;;;8.23;3.22;;;;;;;-1.44;76.33;99474.06;4996035;28;20034;-68
2021/04/04 03:21:30;;;;;;;7.30;3.47;;;;;;;-1.44;76.82;99459.00;5008778;28;20542;-68
2021/04/04 03:23:57;;;;;;;7.78;3.67;;;;;;;-1.30;77.33;99471.28;5011262;28;20081;-68
2021/04/04 03:26:24;;;;;;;7.00;3.17;;;;;;;-1.24;76.75;99462.84;5007010;28;20523;-69
2021/04/04 03:28:50;;;;;;;9.85;4.43;;;;;;;-1.04;76.28;99479.16;5008689;28;20026;-68
2021/04/04 03:31:15;;;;;;;9.38;3.95;;;;;;;-1.13;75.88;99478.00;5014087;28;20026;-68
2021/04/04 03:33:42;;;;;;;7.90;4.03;;;;;;;-1.37;76.16;99470.84;5014443;28;20041;-69
2021/04/04 03:36:13;;;;;;;9.75;4.22;;;;;;;-1.28;76.22;99484.41;5012577;28;20041;-69
2021/04/04 03:38:39;;;;;;;10.10;3.63;;;;;;;-1.26;75.64;99474.53;5009418;28;20033;-69
2021/04/04 03:41:05;;;;;;;7.72;3.60;;;;;;;-1.37;76.34;99486.78;5012984;28;20041;-69
2021/04/04 03:43:33;;;;;;;5.78;3.25;;;;;;;-1.49;77.03;99477.06;5010716;28;20044;-70
2021/04/04 03:46:01;;;;;;;14.75;4.20;;;;;;;-1.43;77.31;99486.41;5000578;28;20422;-68
2021/04/04 03:48:31;;;;;;;8.38;3.30;;;;;;;-1.63;76.41;99472.72;5011833;28;20096;-69
2021/04/04 03:50:59;;;;;;;6.97;3.55;;;;;;;-1.62;76.50;99476.25;5007281;28;20018;-69
2021/04/04 03:53:29;;;;;;;10.35;3.90;;;;;;;-1.64;76.93;99471.03;5009719;28;20109;-68
2021/04/04 03:55:58;;;;;;;7.63;3.38;;;;;;;-1.53;77.62;99483.53;5008929;28;20066;-67
2021/04/04 03:58:26;;;;;;;9.48;3.75;;;;;;;-1.55;77.09;99478.38;5012113;28;20053;-67
2021/04/04 04:00:53;;;;;;;8.10;3.70;;;;;;;-1.60;77.98;99480.50;5011260;28;20053;-67
2021/04/04 04:03:21;;;;;;;7.82;3.03;;;;;;;-1.55;77.87;99472.19;5009926;28;20030;-67
2021/04/04 04:05:48;;;;;;;5.18;3.05;;;;;;;-1.47;77.82;99469.81;5010620;28;20022;-67
2021/04/04 04:08:16;;;;;;;8.43;3.20;;;;;;;-1.40;77.66;99475.56;5011848;28;20029;-67
2021/04/04 04:10:43;;;;;;;13.05;2.83;;;;;;;-1.42;78.26;99469.50;5012935;28;20041;-67
2021/04/04 04:13:09;;;;;;;8.10;3.22;;;;;;;-1.48;78.16;99465.50;5011411;28;20030;-68
2021/04/04 04:15:35;;;;;;;8.52;3.33;;;;;;;-1.58;78.44;99469.75;5010459;28;20041;-67
2021/04/04 04:18:04;;;;;;;5.05;2.88;;;;;;;-1.64;76.54;99467.56;5008665;28;20518;-67
2021/04/04 04:20:29;;;;;;;5.38;2.90;;;;;;;-1.71;77.22;99472.44;5012309;28;20399;-68
2021/04/04 04:23:01;;;;;;;6.22;3.42;;;;;;;-1.64;78.47;99472.84;5008667;28;20026;-67
2021/04/04 04:25:28;;;;;;;6.30;2.70;;;;;;;-1.72;77.34;99470.75;5012063;28;20427;-67
2021/04/04 04:27:54;;;;;;;8.25;2.60;;;;;;;-1.78;77.64;99476.50;5000353;28;20083;-67
2021/04/04 04:30:21;;;;;;;5.07;2.70;;;;;;;-1.89;78.30;99476.38;5012031;28;20025;-67
2021/04/04 04:32:48;;;;;;;11.70;2.92;;;;;;;-1.98;78.42;99470.78;5009901;28;20034;-68
2021/04/04 04:35:15;;;;;;;7.25;3.20;;;;;;;-1.77;79.43;99472.88;5012160;28;20116;-67
2021/04/04 04:37:41;;;;;;;6.65;3.08;;;;;;;-1.75;78.68;99470.13;5012223;28;20022;-67
2021/04/04 04:40:10;;;;;;;7.40;3.38;;;;;;;-1.83;79.48;99460.91;5013905;28;20083;-67
2021/04/04 04:42:48;;;;;;;7.97;2.33;;;;;;;-1.79;79.42;99464.19;5005459;28;20026;-67
2021/04/04 04:45:23;;;;;;;7.43;3.50;;;;;;;-1.68;79.30;99476.69;5010307;28;20280;-67
2021/04/04 04:47:52;;;;;;;10.15;3.40;;;;;;;-1.74;78.82;99456.75;5010775;28;20361;-67
2021/04/04 04:50:18;;;;;;;11.02;3.35;;;;;;;-1.69;78.37;99473.19;5013572;28;20076;-67
2021/04/04 04:52:44;;;;;;;7.20;3.47;;;;;;;-1.72;78.71;99468.09;5008330;28;20034;-67
2021/04/04 04:55:10;;;;;;;8.63;3.47;;;;;;;-1.61;78.08;99473.47;5011431;28;20033;-68
2021/04/04 04:57:36;;;;;;;6.05;3.38;;;;;;;-1.74;77.50;99462.03;5010131;28;20018;-69
2021/04/04 05:00:06;;;;;;;9.07;3.38;;;;;;;-1.68;77.94;99477.50;5012516;28;20029;-69
2021/04/04 05:02:31;;;;;;;12.73;3.85;;;;;;;-1.74;77.33;99472.66;5005453;28;20156;-69
2021/04/04 05:04:56;;;;;;;11.98;3.25;;;;;;;-1.59;76.53;99476.03;5007035;28;20109;-68
2021/04/04 05:07:22;;;;;;;10.15;3.40;;;;;;;-1.64;75.49;99479.00;5012255;28;20057;-68
2021/04/04 05:09:49;;;;;;;5.97;3.10;;;;;;;-1.68;76.61;99480.16;5013300;28;20037;-69
2021/04/04 05:12:20;;;;;;;7.15;2.60;;;;;;;-1.67;76.81;99481.03;4999520;28;20092;-69
2021/04/04 05:14:47;;;;;;;6.25;3.28;;;;;;;-1.55;76.47;99486.31;5006958;28;20039;-68
2021/04/04 05:17:12;;;;;;;8.30;3.20;;;;;;;-1.49;75.60;99481.50;5010313;28;20033;-69
2021/04/04 05:19:38;;;;;;;8.52;3.38;;;;;;;-1.39;75.52;99474.56;5009932;28;20036;-68
2021/04/04 05:22:03;;;;;;;6.43;3.55;;;;;;;-1.25;75.52;99484.22;5011980;28;20026;-69
2021/04/04 05:24:30;;;;;;;7.35;3.33;;;;;;;-1.14;75.59;99479.81;4999871;28;20041;-69
2021/04/04 05:26:55;;;;;;;7.97;3.25;;;;;;;-0.96;75.17;99480.25;4993204;28;20090;-69
2021/04/04 05:29:20;;;;;;;9.77;3.72;;;;;;;-0.80;73.84;99481.78;5028151;28;20042;-69
2021/04/04 05:31:54;;;;;;;24.10;8.32;;;;;;;-0.36;73.22;99475.78;5035720;28;20065;-68
2021/04/04 05:34:20;;;;;;;27.95;8.60;;;;;;;0.84;69.95;99474.31;5046012;28;20010;-68
2021/04/04 05:36:58;;;;;;;14.07;4.85;;;;;;;2.73;62.69;99466.22;5036091;28;20050;-68
2021/04/04 05:39:27;;;;;;;8.77;3.25;;;;;;;4.22;58.24;99447.97;5032738;28;20122;-69
2021/04/04 05:41:54;;;;;;;7.55;3.28;;;;;;;5.61;53.71;99460.16;5031894;28;20021;-68
2021/04/04 05:44:28;;;;;;;6.82;2.50;;;;;;;6.08;52.76;99456.34;5026370;28;20443;-69
2021/04/04 05:47:00;;;;;;;8.40;3.40;;;;;;;6.64;51.07;99446.88;5038834;28;20070;-68
2021/04/04 05:49:34;;;;;;;8.77;3.40;;;;;;;7.09;50.19;99456.41;5030169;28;20037;-68
2021/04/04 05:52:15;;;;;;;5.30;2.60;;;;;;;8.18;47.47;99443.63;5024609;28;20026;-69
2021/04/04 05:55:01;;;;;;;11.48;3.53;;;;;;;8.89;46.21;99444.56;5007115;28;20021;-69
2021/04/04 05:57:47;;;;;;;4.57;2.35;;;;;;;9.39;44.98;99457.56;5016483;28;20022;-69
2021/04/04 06:00:16;;;;;;;5.30;3.00;;;;;;;9.44;44.40;99448.94;5010887;28;20030;-69
2021/04/04 06:03:12;;;;;;;7.35;2.90;;;;;;;9.67;44.35;99448.94;5016089;28;20061;-69
2021/04/04 06:05:56;;;;;;;6.22;3.25;;;;;;;9.64;44.73;99446.56;5008511;28;20069;-69
2021/04/04 06:08:42;;;;;;;7.13;2.90;;;;;;;10.23;43.29;99446.69;5013312;28;20032;-70
2021/04/04 06:11:30;;;;;;;12.93;4.07;;;;;;;10.90;42.35;99448.47;5004328;28;20183;-69
2021/04/04 06:14:02;;;;;;;6.63;2.97;;;;;;;11.64;40.90;99439.25;5010548;28;20054;-70
2021/04/04 06:16:54;;;;;;;6.40;2.95;;;;;;;12.49;38.93;99430.09;5011306;28;20060;-69
2021/04/04 06:19:47;;;;;;;6.63;3.25;;;;;;;12.74;38.65;99426.06;5013375;28;20098;-69
2021/04/04 06:22:23;;;;;;;9.63;2.85;;;;;;;13.10;38.83;99423.06;5007696;28;20125;-69
2021/04/04 06:25:06;;;;;;;9.40;4.53;;;;;;;13.41;37.62;99432.56;5012868;28;20104;-69
2021/04/04 06:27:52;;;;;;;9.77;5.30;;;;;;;13.10;37.72;99426.59;4996561;28;20026;-69
2021/04/04 06:30:46;;;;;;;7.70;5.15;;;;;;;12.41;39.22;99432.97;5012027;28;20045;-68
2021/04/04 06:33:33;;;;;;;12.55;5.50;;;;;;;14.60;36.01;99424.34;5018919;28;20038;-69
2021/04/04 06:36:20;;;;;;;7.50;3.80;;;;;;;15.62;34.67;99426.34;5032463;28;20041;-69
2021/04/04 06:39:06;;;;;;;7.70;4.45;;;;;;;15.24;34.16;99421.75;5033350;28;20045;-69
2021/04/04 06:41:44;;;;;;;14.75;5.55;;;;;;;15.06;35.09;99426.06;5034081;28;20072;-74
2021/04/04 06:44:09;;;;;;;12.65;5.25;;;;;;;14.80;35.46;99431.59;5027684;28;20029;-73
2021/04/04 06:47:24;;;;;;;9.43;5.25;;;;;;;15.53;35.12;99425.78;5030683;28;20030;-75
2021/04/04 06:50:17;;;;;;;14.05;4.47;;;;;;;15.84;33.72;99422.22;5011739;28;20057;-75
2021/04/04 06:53:20;;;;;;;7.82;4.28;;;;;;;16.99;32.69;99427.13;5021108;28;20030;-74
2021/04/04 06:56:03;;;;;;;14.07;4.32;;;;;;;17.67;31.44;99428.69;5002509;28;20057;-74
2021/04/04 06:58:43;;;;;;;9.77;5.05;;;;;;;18.48;30.69;99437.25;5034868;28;20030;-74
2021/04/04 07:01:29;;;;;;;8.45;4.13;;;;;;;20.43;28.50;99421.69;5041236;28;20097;-74
2021/04/04 07:04:01;;;;;;;7.95;3.85;;;;;;;20.94;27.95;99426.00;5015377;28;20458;-74
2021/04/04 07:06:26;;;;;;;7.00;3.83;;;;;;;19.82;28.91;99435.31;5004938;28;20397;-74
2021/04/04 07:09:10;;;;;;;8.07;3.65;;;;;;;19.60;29.03;99432.44;5006973;28;20049;-75
2021/04/04 07:11:55;;;;;;;6.85;3.70;;;;;;;18.45;30.65;99431.44;5028882;28;20021;-74
2021/04/04 07:14:39;;;;;;;6.55;2.95;;;;;;;20.41;28.30;99429.34;5011174;28;20046;-72
2021/04/04 07:17:23;;;;;;;9.82;3.70;;;;;;;20.99;27.22;99425.25;5026091;28;20030;-74
2021/04/04 07:20:08;;;;;;;7.55;3.75;;;;;;;21.74;25.93;99429.06;5008204;28;20394;-74
2021/04/04 07:22:57;;;;;;;7.57;3.75;;;;;;;20.33;27.88;99419.63;5029008;28;20113;-69
2021/04/04 07:25:41;;;;;;;8.60;4.03;;;;;;;21.13;27.08;99421.00;5014471;28;20029;-72
2021/04/04 07:28:57;;;;;;;7.55;4.05;;;;;;;20.54;27.76;99418.88;5010517;28;20627;-74
2021/04/04 07:31:27;;;;;;;9.27;4.28;;;;;;;20.64;27.43;99420.91;5011823;28;20118;-75
2021/04/04 07:34:11;;;;;;;8.07;3.95;;;;;;;21.11;27.08;99419.59;5028767;28;20071;-74
2021/04/04 07:37:03;;;;;;;9.35;4.10;;;;;;;22.52;26.06;99423.09;5018523;28;20547;-75
2021/04/04 07:40:00;;;;;;;7.82;3.60;;;;;;;21.76;25.77;99426.06;5022240;28;20026;-74
2021/04/04 07:42:37;;;;;;;8.85;3.50;;;;;;;22.47;24.84;99410.09;4999553;28;20101;-75
2021/04/04 07:45:31;;;;;;;5.22;3.28;;;;;;;22.94;24.31;99420.25;5004883;28;20025;-75
2021/04/04 07:48:23;;;;;;;7.22;3.33;;;;;;;22.23;25.80;99425.38;5009767;28;20080;-74
2021/04/04 07:51:04;;;;;;;5.97;3.45;;;;;;;22.75;25.49;99424.59;5000090;28;20440;-69
2021/04/04 07:54:01;;;;;;;8.73;3.80;;;;;;;23.28;25.47;99410.75;5007950;28;20365;-70
2021/04/04 07:56:37;;;;;;;11.35;3.60;;;;;;;23.08;25.17;99419.78;4993128;28;20045;-70
2021/04/04 07:59:13;;;;;;;6.13;3.13;;;;;;;24.46;24.47;99411.66;4994380;28;20088;-69
2021/04/04 08:01:55;;;;;;;6.68;3.35;;;;;;;22.49;25.47;99413.44;4996273;28;20032;-71
2021/04/04 08:04:39;;;;;;;8.13;3.35;;;;;;;22.46;25.60;99413.97;5005286;28;20030;-70
2021/04/04 08:07:32;;;;;;;6.80;3.60;;;;;;;21.42;26.92;99418.03;5002027;28;20036;-70
2021/04/04 08:10:07;;;;;;;7.07;3.50;;;;;;;20.81;27.48;99422.81;5007777;28;20662;-70
2021/04/04 08:12:41;;;;;;;7.75;3.25;;;;;;;22.23;26.28;99415.19;5000597;28;20029;-70
2021/04/04 08:15:17;;;;;;;7.47;3.08;;;;;;;22.92;25.98;99408.69;5010596;28;20026;-69
2021/04/04 08:17:43;;;;;;;6.68;3.55;;;;;;;23.06;25.45;99411.81;5001716;28;20026;-70
2021/04/04 08:20:20;;;;;;;9.05;3.58;;;;;;;23.93;24.46;99408.41;5001147;28;20030;-68
2021/04/04 08:22:53;;;;;;;7.15;3.50;;;;;;;23.83;25.34;99409.22;5000917;28;20151;-70
2021/04/04 08:25:28;;;;;;;6.70;3.42;;;;;;;21.76;27.13;99421.41;5006815;28;20018;-72
2021/04/04 08:28:11;;;;;;;6.13;3.22;;;;;;;22.62;26.40;99405.78;5006949;28;20552;-70
2021/04/04 08:30:43;;;;;;;6.40;3.53;;;;;;;23.21;25.92;99399.13;5003258;28;20551;-72
2021/04/04 08:33:20;;;;;;;5.82;3.88;;;;;;;22.88;25.83;99412.25;5023001;28;20427;-73
2021/04/04 08:35:48;;;;;;;6.63;3.00;;;;;;;24.32;25.42;99405.03;5011277;28;20033;-76
2021/04/04 08:38:25;;;;;;;6.25;3.25;;;;;;;24.06;24.96;99402.31;5009590;28;20026;-74
2021/04/04 08:40:55;;;;;;;7.63;3.50;;;;;;;24.71;24.64;99414.38;5012343;28;20022;-73
2021/04/04 08:43:22;;;;;;;7.13;2.97;;;;;;;24.84;24.00;99420.44;5004339;28;20029;-70
2021/04/04 08:45:56;;;;;;;9.95;3.67;;;;;;;24.86;24.00;99409.88;5001989;28;20057;-74
2021/04/04 08:48:22;;;;;;;6.43;3.08;;;;;;;25.25;23.51;99406.41;5001120;28;20068;-71
2021/04/04 08:50:50;;;;;;;7.95;3.47;;;;;;;25.40;23.92;99414.63;5009130;28;20033;-70
2021/04/04 08:53:25;;;;;;;5.90;3.03;;;;;;;24.70;24.35;99403.56;4999831;28;20021;-72
2021/04/04 08:55:52;;;;;;;8.05;3.33;;;;;;;25.85;23.66;99398.81;5007371;28;20032;-73
2021/04/04 08:58:22;;;;;;;6.97;3.45;;;;;;;26.24;24.07;99401.53;5002413;28;20026;-76
2021/04/04 09:00:51;;;;;;;7.38;3.20;;;;;;;26.42;23.79;99405.50;4995093;28;20051;-74
2021/04/04 09:03:23;;;;;;;5.95;3.33;;;;;;;24.59;24.66;99396.44;5002062;28;20022;-73
2021/04/04 09:05:48;;;;;;;8.38;3.25;;;;;;;25.19;24.00;99391.78;5001565;28;20076;-73
2021/04/04 09:08:15;;;;;;;14.88;3.53;;;;;;;25.25;24.24;99389.78;5002095;28;20026;-72
2021/04/04 09:10:46;;;;;;;7.28;3.10;;;;;;;25.24;24.60;99393.69;4995232;28;20109;-74
2021/04/04 09:13:14;;;;;;;7.90;3.90;;;;;;;25.52;24.45;99386.59;4996407;28;20491;-71
2021/04/04 09:15:56;;;;;;;6.85;3.38;;;;;;;25.20;24.67;99390.66;5006551;28;20069;-70
2021/04/04 09:18:22;;;;;;;6.35;3.55;;;;;;;25.00;24.34;99387.97;5009687;28;20029;-72
2021/04/04 09:20:50;;;;;;;13.02;3.45;;;;;;;25.98;24.30;99381.53;5011818;28;20034;-70
2021/04/04 09:23:20;;;;;;;7.55;3.25;;;;;;;25.32;24.50;99371.75;5010865;28;20025;-71
2021/04/04 09:25:52;;;;;;;8.35;3.15;;;;;;;24.24;25.14;99384.31;5000534;28;20030;-71
2021/04/04 09:28:19;;;;;;;7.60;3.20;;;;;;;24.60;24.75;99374.03;4999572;28;20041;-71
2021/04/04 09:30:46;;;;;;;6.40;2.88;;;;;;;25.09;24.51;99376.00;5008649;28;20025;-71
2021/04/04 09:33:17;;;;;;;5.88;2.67;;;;;;;26.17;23.31;99369.69;5009783;28;20021;-76
2021/04/04 09:35:43;;;;;;;8.80;2.83;;;;;;;23.89;25.25;99374.94;5006365;28;20030;-79
2021/04/04 09:38:15;;;;;;;7.80;3.05;;;;;;;24.37;25.32;99369.09;4998146;28;20037;-76
2021/04/04 09:40:42;;;;;;;6.10;2.83;;;;;;;24.54;24.56;99366.84;5002421;28;20054;-74
2021/04/04 09:43:11;;;;;;;7.13;3.17;;;;;;;23.86;25.62;99371.91;5018415;28;20030;-73
2021/04/04 09:45:38;;;;;;;7.43;3.00;;;;;;;24.43;25.26;99370.72;4993916;28;20080;-70
2021/04/04 09:48:19;;;;;;;4.88;2.95;;;;;;;24.77;25.42;99356.25;4991920;28;20496;-69
2021/04/04 09:50:45;;;;;;;5.03;2.58;;;;;;;25.99;24.42;99358.25;4999774;28;20026;-70
2021/04/04 09:53:10;;;;;;;5.40;2.80;;;;;;;26.24;23.92;99357.16;4992804;28;20067;-67
2021/04/04 09:55:36;;;;;;;5.38;3.03;;;;;;;26.55;24.32;99356.84;4998413;28;20025;-69
2021/04/04 09:58:02;;;;;;;8.00;2.60;;;;;;;27.29;22.28;99348.94;5004952;28;20423;-69
2021/04/04 10:00:39;;;;;;;5.45;2.28;;;;;;;25.85;23.18;99361.97;4999448;28;20097;-70
2021/04/04 10:03:13;;;;;;;5.43;2.88;;;;;;;26.65;22.16;99351.19;4998245;28;20769;-71
2021/04/04 10:05:49;;;;;;;6.40;2.28;;;;;;;25.92;22.39;99354.16;4990401;28;20045;-71
2021/04/04 10:08:29;;;;;;;4.88;2.55;;;;;;;25.94;23.05;99352.75;4989227;28;20464;-70
2021/04/04 10:10:56;;;;;;;6.00;2.10;;;;;;;27.40;22.49;99343.22;5009930;28;20030;-70
2021/04/04 10:13:26;;;;;;;6.78;2.00;;;;;;;26.40;22.41;99349.47;4996820;28;20120;-68
2021/04/04 10:15:53;;;;;;;5.18;2.35;;;;;;;26.38;22.67;99343.44;4990032;28;20128;-69
2021/04/04 10:18:20;;;;;;;6.22;1.92;;;;;;;27.23;21.17;99339.03;4990778;28;20188;-70
2021/04/04 10:20:56;;;;;;;5.72;2.10;;;;;;;25.32;22.20;99334.94;4991088;28;20113;-68
2021/04/04 10:23:32;;;;;;;3.72;1.90;;;;;;;23.98;23.15;99333.75;4998907;28;20045;-69
2021/04/04 10:26:03;;;;;;;5.95;1.95;;;;;;;20.09;27.59;99340.13;5005775;28;20030;-71
2021/04/04 10:28:45;;;;;;;6.15;1.92;;;;;;;21.69;25.90;99340.91;4993577;28;20121;-70
2021/04/04 10:31:11;;;;;;;4.25;1.77;;;;;;;23.55;23.97;99323.00;5002951;28;20037;-70
2021/04/04 10:33:36;;;;;;;3.88;1.48;;;;;;;24.69;21.79;99322.50;5005478;28;20042;-70
2021/04/04 10:36:16;;;;;;;4.53;2.00;;;;;;;26.96;20.12;99322.16;5014764;28;20026;-69
2021/04/04 10:38:42;;;;;;;6.20;1.58;;;;;;;26.88;20.16;99321.75;5012869;28;20037;-70
2021/04/04 10:41:07;;;;;;;2.42;1.35;;;;;;;26.09;20.40;99325.97;5025693;28;20034;-70
2021/04/04 10:43:41;;;;;;;3.90;1.38;;;;;;;27.63;21.26;99308.13;5026651;28;20129;-68
2021/04/04 10:46:16;;;;;;;3.53;1.42;;;;;;;27.26;20.51;99309.84;5016495;28;20033;-69
2021/04/04 10:48:44;;;;;;;4.35;1.52;;;;;;;24.96;21.97;99303.84;5011673;28;20022;-70
2021/04/04 10:51:12;;;;;;;3.03;1.77;;;;;;;22.90;24.49;99319.00;5019596;28;20029;-69
2021/04/04 10:53:37;;;;;;;3.33;1.60;;;;;;;25.12;24.69;99313.69;5009554;28;20412;-71
2021/04/04 10:56:04;;;;;;;3.55;2.05;;;;;;;25.18;23.81;99300.66;4992862;28;20022;-71
2021/04/04 10:58:30;;;;;;;5.25;1.67;;;;;;;24.92;21.86;99311.88;5002496;28;20022;-71
2021/04/04 11:00:57;;;;;;;5.78;2.00;;;;;;;25.37;22.47;99298.88;5011564;28;20149;-70
2021/04/04 11:03:23;;;;;;;3.83;1.63;;;;;;;25.77;22.20;99302.41;5009433;28;20038;-70
2021/04/04 11:05:49;;;;;;;3.90;1.63;;;;;;;26.84;22.06;99298.47;5005471;28;20034;-70
2021/04/04 11:08:16;;;;;;;4.45;1.98;;;;;;;27.92;21.42;99291.22;5025510;28;20029;-69
2021/04/04 11:10:42;;;;;;;4.25;2.72;;;;;;;28.84;21.04;99292.19;5029334;28;20049;-70
2021/04/04 11:13:07;;;;;;;7.43;2.17;;;;;;;28.47;21.05;99294.09;5029849;28;20540;-68
2021/04/04 11:15:36;;;;;;;3.70;2.17;;;;;;;28.11;21.19;99289.22;5018709;28;20085;-69
2021/04/04 11:18:07;;;;;;;;;;;;;;;28.32;21.64;99283.22;5018381;28;20025;-69
2021/04/04 11:20:33;;;;;;;5.22;2.15;;;;;;;28.31;21.20;99279.63;5024068;28;20000;-70
2021/04/04 11:22:59;;;;;;;6.55;2.42;;;;;;;26.17;22.23;99284.56;5015424;28;20078;-69
2021/04/04 11:25:31;;;;;;;3.70;2.08;;;;;;;24.24;24.13;99282.84;5013228;28;20049;-71
2021/04/04 11:27:57;;;;;;;5.90;2.38;;;;;;;22.08;26.13;99286.34;5017656;28;20033;-70
2021/04/04 11:30:31;;;;;;;5.78;2.60;;;;;;;19.85;29.23;99287.34;5012047;28;20030;-72
2021/04/04 11:33:15;;;;;;;7.00;2.63;;;;;;;18.76;30.40;99295.91;5012196;28;20048;-73
2021/04/04 11:35:58;;;;;;;8.50;2.55;;;;;;;17.83;31.40;99282.16;5024533;28;20042;-67
2021/04/04 11:38:24;;;;;;;5.22;2.22;;;;;;;18.13;31.21;99282.00;5021576;28;20072;-70
2021/04/04 11:41:08;;;;;;;8.02;2.65;;;;;;;21.01;27.96;99280.84;5013840;28;20038;-71
2021/04/04 11:43:34;;;;;;;5.13;2.13;;;;;;;22.71;25.54;99277.28;5013993;28;20026;-70
2021/04/04 11:45:59;;;;;;;3.67;2.10;;;;;;;24.28;25.05;99261.78;5010210;28;20097;-71
2021/04/04 11:48:36;;;;;;;6.03;2.60;;;;;;;25.55;23.62;99264.94;4998725;28;20112;-70
2021/04/04 11:51:10;;;;;;;4.80;2.10;;;;;;;27.00;22.27;99257.41;5000455;28;20033;-69
2021/04/04 11:53:48;;;;;;;7.05;2.58;;;;;;;24.58;22.76;99260.03;5000062;28;20041;-70
2021/04/04 11:56:42;;;;;;;5.70;2.20;;;;;;;25.96;22.09;99259.03;5009728;28;20026;-70